createdAt,value
2023-12-17T00:04:37.702Z,53.45
2023-12-17T00:09:39.842Z,53.32
2023-12-17T00:14:43.393Z,53.65
2023-12-17T00:19:46.980Z,53.48
2023-12-17T00:24:48.646Z,53.48
2023-12-17T00:29:50.830Z,53.82
2023-12-17T00:34:53.182Z,54.05
2023-12-17T00:39:55.630Z,54.15
2023-12-17T00:44:57.728Z,54.33
2023-12-17T00:49:59.737Z,54.35
2023-12-17T00:55:01.956Z,54.30
2023-12-17T01:00:05.575Z,54.46
2023-12-17T01:05:09.264Z,54.66
2023-12-17T01:10:11.328Z,54.15
2023-12-17T01:15:14.859Z,54.38
2023-12-17T01:20:16.814Z,54.25
2023-12-17T01:25:19.029Z,53.79
2023-12-17T01:30:22.150Z,54.26
2023-12-17T01:35:24.263Z,54.33
2023-12-17T01:40:27.390Z,54.45
2023-12-17T01:45:30.309Z,54.33
2023-12-17T01:50:37.940Z,54.33
2023-12-17T01:55:44.674Z,54.02
2023-12-17T02:00:49.749Z,54.39
2023-12-17T02:05:52.478Z,53.94
2023-12-17T02:10:55.312Z,54.88
2023-12-17T02:15:57.412Z,54.77
2023-12-17T02:21:02.226Z,54.97
2023-12-17T02:26:05.190Z,54.91
2023-12-17T02:36:23.772Z,54.42
2023-12-17T02:41:38.851Z,54.83
2023-12-17T02:46:43.268Z,54.44
2023-12-17T02:51:49.310Z,54.21
2023-12-17T02:56:56.854Z,54.16
2023-12-17T03:02:01.382Z,54.18
2023-12-17T03:07:06.835Z,54.15
2023-12-17T03:12:09.564Z,54.74
2023-12-17T03:17:20.439Z,54.46
2023-12-17T03:22:26.336Z,54.58
2023-12-17T03:27:28.683Z,54.76
2023-12-17T03:32:31.958Z,54.32
2023-12-17T03:37:44.507Z,54.18
2023-12-17T03:42:50.610Z,54.42
2023-12-17T03:47:54.985Z,54.40
2023-12-17T03:52:58.502Z,54.07
2023-12-17T03:58:01.562Z,54.16
2023-12-17T04:03:08.402Z,53.67
2023-12-17T04:08:14.381Z,54.09
2023-12-17T04:13:19.109Z,53.89
2023-12-17T04:18:21.608Z,53.99
2023-12-17T04:23:27.593Z,53.78
2023-12-17T04:28:29.434Z,53.75
2023-12-17T04:33:32.828Z,53.87
2023-12-17T04:43:50.545Z,53.88
2023-12-17T04:48:53.945Z,54.21
2023-12-17T04:53:58.557Z,53.94
2023-12-17T04:59:01.050Z,53.47
2023-12-17T05:04:04.427Z,53.29
2023-12-17T05:09:11.222Z,53.03
2023-12-17T05:14:13.960Z,53.30
2023-12-17T05:19:20.244Z,52.93
2023-12-17T05:24:22.042Z,52.92
2023-12-17T05:29:26.207Z,53.50
2023-12-17T05:34:30.164Z,53.17
2023-12-17T05:39:39.609Z,53.58
2023-12-17T05:44:41.210Z,53.61
2023-12-17T05:49:54.675Z,53.81
2023-12-17T05:54:56.345Z,53.98
2023-12-17T06:00:00.906Z,53.69
2023-12-17T06:05:09.233Z,54.07
2023-12-17T06:10:11.192Z,54.27
2023-12-17T06:15:17.147Z,53.92
2023-12-17T06:20:18.761Z,54.18
2023-12-17T06:25:20.330Z,54.37
2023-12-17T06:30:22.883Z,54.31
2023-12-17T06:35:29.409Z,54.58
2023-12-17T06:40:35.278Z,54.68
2023-12-17T06:45:36.850Z,54.19
2023-12-17T06:50:43.292Z,54.95
2023-12-17T06:55:44.927Z,54.77
2023-12-17T07:00:51.444Z,54.72
2023-12-17T07:05:56.116Z,54.88
2023-12-17T07:11:02.148Z,54.98
2023-12-17T07:16:22.939Z,55.02
2023-12-17T07:21:24.618Z,54.90
2023-12-17T07:26:27.487Z,55.11
2023-12-17T07:31:29.035Z,55.23
2023-12-17T07:36:32.705Z,55.29
2023-12-17T07:41:34.253Z,55.47
2023-12-17T07:46:35.773Z,55.27
2023-12-17T07:51:39.340Z,55.42
2023-12-17T07:56:40.891Z,55.47
2023-12-17T08:01:44.893Z,55.82
2023-12-17T08:06:48.554Z,55.47
2023-12-17T08:11:52.496Z,55.83
2023-12-17T08:16:54.131Z,55.69
2023-12-17T08:21:57.888Z,55.84
2023-12-17T08:27:00.525Z,56.01
2023-12-17T08:32:05.043Z,55.88
2023-12-17T08:37:06.694Z,55.64
2023-12-17T08:42:12.929Z,55.84
2023-12-17T08:47:14.783Z,55.39
2023-12-17T08:52:16.320Z,55.73
2023-12-17T08:57:18.656Z,55.30
2023-12-17T09:02:22.808Z,55.70
2023-12-17T09:07:26.539Z,55.47
2023-12-17T09:12:41.667Z,55.34
2023-12-17T09:17:48.787Z,55.56
2023-12-17T09:22:53.642Z,55.61
2023-12-17T09:27:58.697Z,55.52
2023-12-17T09:33:08.076Z,55.38
2023-12-17T09:38:12.634Z,55.91
2023-12-17T09:43:15.151Z,55.59
2023-12-17T09:48:17.813Z,55.04
2023-12-17T09:53:23.738Z,55.73
2023-12-17T09:58:29.400Z,55.30
2023-12-17T10:03:38.750Z,55.55
2023-12-17T10:08:44.622Z,55.48
2023-12-17T10:13:51.366Z,55.96
2023-12-17T10:18:54.340Z,55.75
2023-12-17T10:23:55.987Z,55.65
2023-12-17T10:28:57.670Z,55.92
2023-12-17T10:34:24.226Z,55.54
2023-12-17T10:39:26.729Z,55.76
2023-12-17T10:44:29.558Z,56.14
2023-12-17T10:49:35.731Z,55.28
2023-12-17T10:54:37.400Z,55.86
2023-12-17T10:59:47.157Z,55.47
2023-12-17T11:04:49.399Z,55.67
2023-12-17T11:09:53.553Z,55.70
2023-12-17T11:15:00.780Z,55.82
2023-12-17T11:20:04.291Z,55.82
2023-12-17T11:25:11.044Z,56.05
2023-12-17T11:30:30.794Z,56.22
2023-12-17T11:35:36.343Z,55.44
2023-12-17T11:40:38.930Z,56.08
2023-12-17T11:45:46.760Z,56.55
2023-12-17T11:51:00.451Z,56.12
2023-12-17T11:56:08.388Z,56.19
2023-12-17T12:01:12.736Z,55.69
2023-12-17T12:06:17.152Z,55.81
2023-12-17T12:11:21.023Z,56.39
2023-12-17T12:16:24.092Z,55.89
2023-12-17T12:21:26.910Z,55.74
2023-12-17T12:26:35.923Z,56.00
2023-12-17T12:31:41.101Z,55.83
2023-12-17T12:36:47.663Z,55.94
2023-12-17T12:41:53.195Z,56.14
2023-12-17T12:46:54.825Z,55.69
2023-12-17T12:51:58.968Z,56.54
2023-12-17T12:57:00.779Z,56.62
2023-12-17T13:02:02.424Z,56.27
2023-12-17T13:07:04.290Z,56.30
2023-12-17T13:12:12.458Z,56.21
2023-12-17T13:17:23.770Z,55.89
2023-12-17T13:22:27.633Z,55.60
2023-12-17T13:27:34.107Z,55.96
2023-12-17T13:32:40.157Z,55.64
2023-12-17T13:37:43.871Z,55.83
2023-12-17T13:42:51.518Z,55.74
2023-12-17T13:47:55.797Z,55.60
2023-12-17T13:53:01.205Z,56.18
2023-12-17T13:58:03.038Z,55.67
2023-12-17T14:03:04.739Z,55.69
2023-12-17T14:08:09.430Z,56.12
2023-12-17T14:13:13.479Z,56.10
2023-12-17T14:18:19.940Z,55.74
2023-12-17T14:23:22.603Z,55.68
2023-12-17T14:28:26.135Z,55.81
2023-12-17T14:33:35.192Z,55.84
2023-12-17T14:38:42.098Z,56.05
2023-12-17T14:43:50.030Z,55.86
2023-12-17T14:49:01.949Z,55.66
2023-12-17T14:54:03.967Z,55.46
2023-12-17T14:59:08.070Z,56.11
2023-12-17T15:04:09.629Z,55.92
2023-12-17T15:09:23.734Z,55.55
2023-12-17T15:14:29.312Z,55.64
2023-12-17T15:19:35.877Z,55.52
2023-12-17T15:24:46.249Z,55.47
2023-12-17T15:29:55.475Z,55.73
2023-12-17T15:34:57.038Z,55.92
2023-12-17T15:40:01.392Z,55.88
2023-12-17T15:45:06.545Z,56.14
2023-12-17T15:50:09.074Z,56.23
2023-12-17T15:55:10.676Z,55.44
2023-12-17T16:00:15.864Z,56.20
2023-12-17T16:05:17.432Z,55.55
2023-12-17T16:10:29.099Z,55.84
2023-12-17T16:15:32.860Z,55.90
2023-12-17T16:20:35.041Z,56.33
2023-12-17T16:25:36.640Z,56.03
2023-12-17T16:30:45.384Z,56.20
2023-12-17T16:35:58.862Z,56.13
2023-12-17T16:41:09.078Z,56.06
2023-12-17T16:46:12.994Z,56.33
2023-12-17T16:51:14.618Z,56.43
2023-12-17T16:56:17.187Z,56.46
2023-12-17T17:01:19.112Z,56.23
2023-12-17T17:06:23.255Z,56.84
2023-12-17T17:11:29.617Z,56.65
2023-12-17T17:16:32.396Z,56.99
2023-12-17T17:21:38.834Z,56.80
2023-12-17T17:26:40.432Z,56.95
2023-12-17T17:31:45.415Z,57.08
2023-12-17T17:36:49.291Z,56.65
2023-12-17T17:41:53.959Z,57.12
2023-12-17T17:46:55.643Z,57.60
2023-12-17T17:52:01.837Z,57.50
2023-12-17T17:57:07.374Z,56.79
2023-12-17T18:02:11.232Z,57.21
2023-12-17T18:07:15.006Z,57.09
2023-12-17T18:12:19.651Z,57.07
2023-12-17T18:17:21.624Z,57.30
2023-12-17T18:22:30.529Z,56.82
2023-12-17T18:27:35.250Z,56.98
2023-12-17T18:32:46.134Z,57.41
2023-12-17T18:37:50.391Z,57.03
2023-12-17T18:42:53.993Z,56.81
2023-12-17T18:48:01.724Z,56.53
2023-12-17T18:53:03.551Z,56.37
2023-12-17T18:58:09.439Z,56.80
2023-12-17T19:03:11.093Z,56.81
2023-12-17T19:08:12.714Z,56.99
2023-12-17T19:13:16.394Z,56.65
2023-12-17T19:18:20.575Z,57.26
2023-12-17T19:23:22.292Z,56.94
2023-12-17T19:28:29.447Z,56.87
2023-12-17T19:33:31.115Z,56.72
2023-12-17T19:38:32.741Z,56.47
2023-12-17T19:43:38.370Z,56.33
2023-12-17T19:48:44.791Z,56.21
2023-12-17T19:53:47.066Z,56.51
2023-12-17T19:58:48.737Z,56.08
2023-12-17T20:03:56.303Z,56.33
2023-12-17T20:08:58.073Z,56.51
2023-12-17T20:13:59.700Z,56.70
2023-12-17T20:19:08.674Z,56.96
2023-12-17T20:24:14.742Z,56.39
2023-12-17T20:29:16.389Z,56.37
2023-12-17T20:34:18.747Z,56.45
2023-12-17T20:39:20.425Z,56.20
2023-12-17T20:44:22.074Z,56.45
2023-12-17T20:49:38.568Z,57.04
2023-12-17T20:54:42.341Z,56.67
2023-12-17T21:00:01.443Z,56.99
2023-12-17T21:05:04.613Z,56.36
2023-12-17T21:10:07.129Z,56.18
2023-12-17T21:15:13.827Z,56.59
2023-12-17T21:20:17.667Z,56.09
2023-12-17T21:25:29.986Z,56.27
2023-12-17T21:30:37.156Z,56.13
2023-12-17T21:35:43.769Z,56.15
2023-12-17T21:40:45.395Z,56.37
2023-12-17T21:45:49.629Z,56.03
2023-12-17T21:50:54.780Z,56.42
2023-12-17T21:56:05.361Z,56.10
2023-12-17T22:01:08.510Z,56.35
2023-12-17T22:06:14.630Z,56.04
2023-12-17T22:11:19.058Z,56.02
2023-12-17T22:16:23.083Z,55.84
2023-12-17T22:21:27.343Z,55.66
2023-12-17T22:26:31.779Z,55.92
2023-12-17T22:31:35.856Z,55.75
2023-12-17T22:36:40.066Z,56.01
2023-12-17T22:41:47.036Z,56.21
2023-12-17T22:46:49.839Z,55.97
2023-12-17T22:51:55.670Z,56.52
2023-12-17T22:56:57.301Z,56.04
2023-12-17T23:01:59.097Z,56.26
2023-12-17T23:07:01.787Z,55.86
2023-12-17T23:12:05.999Z,55.96
2023-12-17T23:17:09.937Z,56.43
2023-12-17T23:22:14.089Z,56.08
2023-12-17T23:27:16.897Z,55.93
2023-12-17T23:32:28.029Z,55.96
2023-12-17T23:37:31.867Z,56.42
2023-12-17T23:42:37.777Z,56.30
2023-12-17T23:47:42.814Z,56.01
2023-12-17T23:52:45.819Z,56.36
2023-12-17T23:57:48.606Z,55.91
